sensor_id;sensor_type;location;lat;lon;timestamp;P1;durP1;ratioP1;P2;durP2;ratioP2
4806;SDS011;2417;52.482;13.432;2023-07-31T00:00:57;11.60;;;4.70;;
4806;SDS011;2417;52.482;13.432;2023-07-31T00:03:25;11.20;;;4.90;;
4806;SDS011;2417;52.482;13.432;2023-07-31T00:05:53;8.60;;;4.40;;
4806;SDS011;2417;52.482;13.432;2023-07-31T00:08:21;12.20;;;4.10;;
4806;SDS011;2417;52.482;13.432;2023-07-31T00:10:51;11.40;;;4.67;;
4806;SDS011;2417;52.482;13.432;2023-07-31T00:13:20;8.93;;;4.47;;
4806;SDS011;2417;52.482;13.432;2023-07-31T00:16:09;10.43;;;4.43;;
4806;SDS011;2417;52.482;13.432;2023-07-31T00:18:37;8.13;;;4.53;;
4806;SDS011;2417;52.482;13.432;2023-07-31T00:21:05;9.50;;;4.27;;
4806;SDS011;2417;52.482;13.432;2023-07-31T00:23:33;9.77;;;4.67;;
4806;SDS011;2417;52.482;13.432;2023-07-31T00:26:01;9.53;;;5.03;;
4806;SDS011;2417;52.482;13.432;2023-07-31T00:28:30;9.27;;;5.03;;
4806;SDS011;2417;52.482;13.432;2023-07-31T00:30:58;8.00;;;4.77;;
4806;SDS011;2417;52.482;13.432;2023-07-31T00:33:26;15.93;;;5.17;;
4806;SDS011;2417;52.482;13.432;2023-07-31T00:35:55;11.50;;;4.80;;
4806;SDS011;2417;52.482;13.432;2023-07-31T00:38:25;8.17;;;4.20;;
4806;SDS011;2417;52.482;13.432;2023-07-31T00:40:53;10.13;;;5.00;;
4806;SDS011;2417;52.482;13.432;2023-07-31T00:43:21;7.80;;;4.57;;
4806;SDS011;2417;52.482;13.432;2023-07-31T00:45:50;11.70;;;4.83;;
4806;SDS011;2417;52.482;13.432;2023-07-31T00:48:18;11.30;;;5.00;;
4806;SDS011;2417;52.482;13.432;2023-07-31T00:50:46;12.27;;;5.30;;
4806;SDS011;2417;52.482;13.432;2023-07-31T00:53:14;7.93;;;4.77;;
4806;SDS011;2417;52.482;13.432;2023-07-31T00:55:42;9.80;;;5.17;;
4806;SDS011;2417;52.482;13.432;2023-07-31T00:58:10;9.30;;;5.27;;
4806;SDS011;2417;52.482;13.432;2023-07-31T01:00:38;10.57;;;5.40;;
4806;SDS011;2417;52.482;13.432;2023-07-31T01:03:08;10.10;;;5.30;;
4806;SDS011;2417;52.482;13.432;2023-07-31T01:05:37;10.47;;;4.80;;
4806;SDS011;2417;52.482;13.432;2023-07-31T01:08:09;10.63;;;4.80;;
4806;SDS011;2417;52.482;13.432;2023-07-31T01:10:41;11.30;;;5.27;;
4806;SDS011;2417;52.482;13.432;2023-07-31T01:13:13;6.90;;;4.60;;
4806;SDS011;2417;52.482;13.432;2023-07-31T01:15:41;8.30;;;4.80;;
4806;SDS011;2417;52.482;13.432;2023-07-31T01:18:10;10.30;;;5.10;;
4806;SDS011;2417;52.482;13.432;2023-07-31T01:20:38;7.90;;;4.33;;
4806;SDS011;2417;52.482;13.432;2023-07-31T01:23:22;7.37;;;4.47;;
4806;SDS011;2417;52.482;13.432;2023-07-31T01:25:56;11.40;;;4.80;;
4806;SDS011;2417;52.482;13.432;2023-07-31T01:28:28;7.90;;;4.83;;
4806;SDS011;2417;52.482;13.432;2023-07-31T01:30:59;7.90;;;4.60;;
4806;SDS011;2417;52.482;13.432;2023-07-31T01:33:28;11.73;;;4.93;;
4806;SDS011;2417;52.482;13.432;2023-07-31T01:35:56;9.33;;;5.20;;
4806;SDS011;2417;52.482;13.432;2023-07-31T01:38:24;9.33;;;5.30;;
4806;SDS011;2417;52.482;13.432;2023-07-31T01:40:52;8.47;;;4.87;;
4806;SDS011;2417;52.482;13.432;2023-07-31T01:43:22;8.10;;;5.17;;
4806;SDS011;2417;52.482;13.432;2023-07-31T01:45:50;16.07;;;6.43;;
4806;SDS011;2417;52.482;13.432;2023-07-31T01:48:18;13.53;;;5.73;;
4806;SDS011;2417;52.482;13.432;2023-07-31T01:50:46;10.73;;;5.50;;
4806;SDS011;2417;52.482;13.432;2023-07-31T01:53:14;9.20;;;5.73;;
4806;SDS011;2417;52.482;13.432;2023-07-31T01:55:42;8.57;;;5.30;;
4806;SDS011;2417;52.482;13.432;2023-07-31T01:58:10;12.03;;;5.30;;
4806;SDS011;2417;52.482;13.432;2023-07-31T02:00:39;9.20;;;5.20;;
4806;SDS011;2417;52.482;13.432;2023-07-31T02:03:08;12.80;;;5.87;;
4806;SDS011;2417;52.482;13.432;2023-07-31T02:05:36;8.97;;;5.50;;
4806;SDS011;2417;52.482;13.432;2023-07-31T02:08:04;9.20;;;5.63;;
4806;SDS011;2417;52.482;13.432;2023-07-31T02:10:32;12.47;;;5.53;;
4806;SDS011;2417;52.482;13.432;2023-07-31T02:13:00;14.83;;;5.80;;
4806;SDS011;2417;52.482;13.432;2023-07-31T02:15:30;8.20;;;5.40;;
4806;SDS011;2417;52.482;13.432;2023-07-31T02:18:00;10.03;;;5.30;;
4806;SDS011;2417;52.482;13.432;2023-07-31T02:20:28;12.53;;;5.67;;
4806;SDS011;2417;52.482;13.432;2023-07-31T02:22:56;10.10;;;5.60;;
4806;SDS011;2417;52.482;13.432;2023-07-31T02:25:25;9.63;;;5.20;;
4806;SDS011;2417;52.482;13.432;2023-07-31T02:27:52;11.53;;;5.67;;
4806;SDS011;2417;52.482;13.432;2023-07-31T02:30:20;12.00;;;5.93;;
4806;SDS011;2417;52.482;13.432;2023-07-31T02:32:49;8.27;;;5.40;;
4806;SDS011;2417;52.482;13.432;2023-07-31T02:35:18;11.70;;;6.40;;
4806;SDS011;2417;52.482;13.432;2023-07-31T02:37:46;11.03;;;5.93;;
4806;SDS011;2417;52.482;13.432;2023-07-31T02:40:14;12.20;;;6.60;;
4806;SDS011;2417;52.482;13.432;2023-07-31T02:42:42;11.13;;;6.07;;
4806;SDS011;2417;52.482;13.432;2023-07-31T02:45:11;8.57;;;6.03;;
4806;SDS011;2417;52.482;13.432;2023-07-31T02:47:39;13.77;;;6.87;;
4806;SDS011;2417;52.482;13.432;2023-07-31T02:50:07;39.47;;;7.00;;
4806;SDS011;2417;52.482;13.432;2023-07-31T02:52:36;14.27;;;6.23;;
4806;SDS011;2417;52.482;13.432;2023-07-31T02:55:05;12.73;;;6.90;;
4806;SDS011;2417;52.482;13.432;2023-07-31T02:57:33;12.07;;;7.00;;
4806;SDS011;2417;52.482;13.432;2023-07-31T03:00:01;12.63;;;7.03;;
4806;SDS011;2417;52.482;13.432;2023-07-31T03:02:32;12.30;;;7.80;;
4806;SDS011;2417;52.482;13.432;2023-07-31T03:05:00;14.40;;;7.60;;
4806;SDS011;2417;52.482;13.432;2023-07-31T03:07:29;12.50;;;7.43;;
4806;SDS011;2417;52.482;13.432;2023-07-31T03:09:58;14.47;;;8.13;;
4806;SDS011;2417;52.482;13.432;2023-07-31T03:12:27;17.03;;;7.97;;
4806;SDS011;2417;52.482;13.432;2023-07-31T03:14:54;13.60;;;7.50;;
4806;SDS011;2417;52.482;13.432;2023-07-31T03:17:22;13.50;;;8.00;;
4806;SDS011;2417;52.482;13.432;2023-07-31T03:19:50;12.57;;;7.60;;
4806;SDS011;2417;52.482;13.432;2023-07-31T03:22:18;12.33;;;8.10;;
4806;SDS011;2417;52.482;13.432;2023-07-31T03:24:46;14.90;;;8.13;;
4806;SDS011;2417;52.482;13.432;2023-07-31T03:27:15;20.23;;;8.37;;
4806;SDS011;2417;52.482;13.432;2023-07-31T03:29:43;16.17;;;8.43;;
4806;SDS011;2417;52.482;13.432;2023-07-31T03:32:11;19.20;;;8.57;;
4806;SDS011;2417;52.482;13.432;2023-07-31T03:34:39;13.33;;;8.20;;
4806;SDS011;2417;52.482;13.432;2023-07-31T03:37:07;18.00;;;8.20;;
4806;SDS011;2417;52.482;13.432;2023-07-31T03:39:36;18.33;;;8.30;;
4806;SDS011;2417;52.482;13.432;2023-07-31T03:42:04;16.10;;;8.50;;
4806;SDS011;2417;52.482;13.432;2023-07-31T03:44:33;17.30;;;9.53;;
4806;SDS011;2417;52.482;13.432;2023-07-31T03:47:01;18.03;;;9.27;;
4806;SDS011;2417;52.482;13.432;2023-07-31T03:49:29;16.73;;;8.53;;
4806;SDS011;2417;52.482;13.432;2023-07-31T03:51:57;15.67;;;9.63;;
4806;SDS011;2417;52.482;13.432;2023-07-31T03:54:25;12.13;;;8.20;;
4806;SDS011;2417;52.482;13.432;2023-07-31T03:56:52;23.10;;;9.17;;
4806;SDS011;2417;52.482;13.432;2023-07-31T03:59:20;16.73;;;9.17;;
4806;SDS011;2417;52.482;13.432;2023-07-31T04:01:50;17.70;;;9.00;;
4806;SDS011;2417;52.482;13.432;2023-07-31T04:04:18;15.70;;;9.50;;
4806;SDS011;2417;52.482;13.432;2023-07-31T04:06:45;25.63;;;9.10;;
4806;SDS011;2417;52.482;13.432;2023-07-31T04:09:13;14.33;;;9.00;;
4806;SDS011;2417;52.482;13.432;2023-07-31T04:11:41;15.50;;;9.23;;
4806;SDS011;2417;52.482;13.432;2023-07-31T04:14:09;18.20;;;9.50;;
4806;SDS011;2417;52.482;13.432;2023-07-31T04:16:37;18.10;;;9.20;;
4806;SDS011;2417;52.482;13.432;2023-07-31T04:19:08;16.77;;;9.60;;
4806;SDS011;2417;52.482;13.432;2023-07-31T04:21:37;14.93;;;9.20;;
4806;SDS011;2417;52.482;13.432;2023-07-31T04:24:05;24.23;;;9.67;;
4806;SDS011;2417;52.482;13.432;2023-07-31T04:26:33;13.93;;;9.13;;
4806;SDS011;2417;52.482;13.432;2023-07-31T04:29:01;29.47;;;10.23;;
4806;SDS011;2417;52.482;13.432;2023-07-31T04:31:29;19.23;;;9.57;;
4806;SDS011;2417;52.482;13.432;2023-07-31T04:33:57;17.63;;;8.87;;
4806;SDS011;2417;52.482;13.432;2023-07-31T04:36:26;15.47;;;8.47;;
4806;SDS011;2417;52.482;13.432;2023-07-31T04:38:54;18.57;;;8.90;;
4806;SDS011;2417;52.482;13.432;2023-07-31T04:41:22;21.33;;;8.67;;
4806;SDS011;2417;52.482;13.432;2023-07-31T04:43:50;13.23;;;8.13;;
4806;SDS011;2417;52.482;13.432;2023-07-31T04:46:18;17.17;;;9.50;;
4806;SDS011;2417;52.482;13.432;2023-07-31T04:48:46;13.93;;;9.13;;
4806;SDS011;2417;52.482;13.432;2023-07-31T04:51:14;18.80;;;7.97;;
4806;SDS011;2417;52.482;13.432;2023-07-31T04:53:43;17.60;;;8.37;;
4806;SDS011;2417;52.482;13.432;2023-07-31T04:56:11;23.03;;;11.03;;
4806;SDS011;2417;52.482;13.432;2023-07-31T04:58:39;16.20;;;8.60;;
4806;SDS011;2417;52.482;13.432;2023-07-31T05:01:07;18.30;;;9.07;;
4806;SDS011;2417;52.482;13.432;2023-07-31T05:03:35;18.10;;;8.90;;
4806;SDS011;2417;52.482;13.432;2023-07-31T05:06:03;17.73;;;9.17;;
4806;SDS011;2417;52.482;13.432;2023-07-31T05:08:31;18.63;;;8.60;;
4806;SDS011;2417;52.482;13.432;2023-07-31T05:11:01;17.33;;;8.90;;
4806;SDS011;2417;52.482;13.432;2023-07-31T05:13:29;18.07;;;9.20;;
4806;SDS011;2417;52.482;13.432;2023-07-31T05:15:58;19.63;;;8.50;;
4806;SDS011;2417;52.482;13.432;2023-07-31T05:18:29;19.00;;;9.57;;
4806;SDS011;2417;52.482;13.432;2023-07-31T05:20:57;23.63;;;8.40;;
4806;SDS011;2417;52.482;13.432;2023-07-31T05:23:24;16.60;;;9.30;;
4806;SDS011;2417;52.482;13.432;2023-07-31T05:25:52;17.67;;;8.20;;
4806;SDS011;2417;52.482;13.432;2023-07-31T05:28:22;11.43;;;7.80;;
4806;SDS011;2417;52.482;13.432;2023-07-31T05:30:49;14.37;;;8.10;;
4806;SDS011;2417;52.482;13.432;2023-07-31T05:33:17;18.37;;;7.43;;
4806;SDS011;2417;52.482;13.432;2023-07-31T05:35:46;15.43;;;7.00;;
4806;SDS011;2417;52.482;13.432;2023-07-31T05:38:14;15.40;;;7.63;;
4806;SDS011;2417;52.482;13.432;2023-07-31T05:40:42;13.67;;;7.00;;
4806;SDS011;2417;52.482;13.432;2023-07-31T05:43:10;22.70;;;7.90;;
4806;SDS011;2417;52.482;13.432;2023-07-31T05:45:39;16.70;;;7.50;;
4806;SDS011;2417;52.482;13.432;2023-07-31T05:48:07;16.30;;;7.40;;
4806;SDS011;2417;52.482;13.432;2023-07-31T05:50:36;18.50;;;8.43;;
4806;SDS011;2417;52.482;13.432;2023-07-31T05:53:05;14.43;;;7.80;;
4806;SDS011;2417;52.482;13.432;2023-07-31T05:55:34;16.70;;;7.17;;
4806;SDS011;2417;52.482;13.432;2023-07-31T05:58:02;20.63;;;7.90;;
4806;SDS011;2417;52.482;13.432;2023-07-31T06:00:30;20.40;;;9.77;;
4806;SDS011;2417;52.482;13.432;2023-07-31T06:02:59;19.00;;;8.87;;
4806;SDS011;2417;52.482;13.432;2023-07-31T06:05:27;15.27;;;7.50;;
4806;SDS011;2417;52.482;13.432;2023-07-31T06:07:56;21.07;;;6.93;;
4806;SDS011;2417;52.482;13.432;2023-07-31T06:10:24;18.00;;;7.90;;
4806;SDS011;2417;52.482;13.432;2023-07-31T06:12:52;13.00;;;7.67;;
4806;SDS011;2417;52.482;13.432;2023-07-31T06:15:20;13.07;;;7.40;;
4806;SDS011;2417;52.482;13.432;2023-07-31T06:17:48;22.83;;;7.33;;
4806;SDS011;2417;52.482;13.432;2023-07-31T06:20:17;18.80;;;8.50;;
4806;SDS011;2417;52.482;13.432;2023-07-31T06:22:46;12.37;;;7.40;;
4806;SDS011;2417;52.482;13.432;2023-07-31T06:25:14;15.90;;;6.70;;
4806;SDS011;2417;52.482;13.432;2023-07-31T06:27:42;18.37;;;7.40;;
4806;SDS011;2417;52.482;13.432;2023-07-31T06:30:10;14.80;;;6.93;;
4806;SDS011;2417;52.482;13.432;2023-07-31T06:32:38;18.93;;;6.70;;
4806;SDS011;2417;52.482;13.432;2023-07-31T06:35:08;20.60;;;7.40;;
4806;SDS011;2417;52.482;13.432;2023-07-31T06:37:38;19.43;;;8.30;;
4806;SDS011;2417;52.482;13.432;2023-07-31T06:40:07;24.43;;;7.93;;
4806;SDS011;2417;52.482;13.432;2023-07-31T06:42:36;12.40;;;6.63;;
4806;SDS011;2417;52.482;13.432;2023-07-31T06:45:04;17.30;;;7.50;;
4806;SDS011;2417;52.482;13.432;2023-07-31T06:47:32;21.50;;;7.80;;
4806;SDS011;2417;52.482;13.432;2023-07-31T06:50:03;14.00;;;6.33;;
4806;SDS011;2417;52.482;13.432;2023-07-31T06:52:30;17.53;;;6.50;;
4806;SDS011;2417;52.482;13.432;2023-07-31T06:55:03;15.43;;;6.40;;
4806;SDS011;2417;52.482;13.432;2023-07-31T06:57:32;13.07;;;6.37;;
4806;SDS011;2417;52.482;13.432;2023-07-31T07:00:00;14.50;;;6.03;;
4806;SDS011;2417;52.482;13.432;2023-07-31T07:02:30;19.50;;;6.20;;
4806;SDS011;2417;52.482;13.432;2023-07-31T07:04:58;12.30;;;5.77;;
4806;SDS011;2417;52.482;13.432;2023-07-31T07:07:26;13.20;;;5.67;;
4806;SDS011;2417;52.482;13.432;2023-07-31T07:09:54;12.40;;;6.20;;
4806;SDS011;2417;52.482;13.432;2023-07-31T07:12:23;13.80;;;6.10;;
4806;SDS011;2417;52.482;13.432;2023-07-31T07:14:51;25.10;;;6.33;;
4806;SDS011;2417;52.482;13.432;2023-07-31T07:17:19;10.23;;;6.47;;
4806;SDS011;2417;52.482;13.432;2023-07-31T07:19:47;15.57;;;5.90;;
4806;SDS011;2417;52.482;13.432;2023-07-31T07:22:15;14.93;;;5.97;;
4806;SDS011;2417;52.482;13.432;2023-07-31T07:24:43;14.33;;;5.90;;
4806;SDS011;2417;52.482;13.432;2023-07-31T07:27:11;19.23;;;6.30;;
4806;SDS011;2417;52.482;13.432;2023-07-31T07:29:40;15.73;;;7.13;;
4806;SDS011;2417;52.482;13.432;2023-07-31T07:32:08;17.40;;;7.40;;
4806;SDS011;2417;52.482;13.432;2023-07-31T07:34:36;11.33;;;7.53;;
4806;SDS011;2417;52.482;13.432;2023-07-31T07:37:04;16.53;;;7.17;;
4806;SDS011;2417;52.482;13.432;2023-07-31T07:39:32;15.97;;;6.77;;
4806;SDS011;2417;52.482;13.432;2023-07-31T07:42:00;12.50;;;6.33;;
4806;SDS011;2417;52.482;13.432;2023-07-31T07:44:28;13.80;;;6.70;;
4806;SDS011;2417;52.482;13.432;2023-07-31T07:46:58;11.33;;;6.10;;
4806;SDS011;2417;52.482;13.432;2023-07-31T07:49:26;9.70;;;5.37;;
4806;SDS011;2417;52.482;13.432;2023-07-31T07:51:54;11.47;;;5.80;;
4806;SDS011;2417;52.482;13.432;2023-07-31T07:54:21;11.60;;;5.67;;
4806;SDS011;2417;52.482;13.432;2023-07-31T07:56:50;9.03;;;5.10;;
4806;SDS011;2417;52.482;13.432;2023-07-31T07:59:17;11.67;;;5.67;;
4806;SDS011;2417;52.482;13.432;2023-07-31T08:01:45;8.53;;;4.83;;
4806;SDS011;2417;52.482;13.432;2023-07-31T08:04:14;13.70;;;4.93;;
4806;SDS011;2417;52.482;13.432;2023-07-31T08:06:42;8.73;;;4.60;;
4806;SDS011;2417;52.482;13.432;2023-07-31T08:09:10;7.90;;;4.13;;
4806;SDS011;2417;52.482;13.432;2023-07-31T08:11:38;9.37;;;4.30;;
4806;SDS011;2417;52.482;13.432;2023-07-31T08:14:06;5.53;;;3.70;;
4806;SDS011;2417;52.482;13.432;2023-07-31T08:16:34;7.30;;;4.20;;
4806;SDS011;2417;52.482;13.432;2023-07-31T08:19:02;9.03;;;3.70;;
4806;SDS011;2417;52.482;13.432;2023-07-31T08:21:32;7.47;;;3.70;;
4806;SDS011;2417;52.482;13.432;2023-07-31T08:24:00;7.43;;;3.97;;
4806;SDS011;2417;52.482;13.432;2023-07-31T08:26:28;5.27;;;3.83;;
4806;SDS011;2417;52.482;13.432;2023-07-31T08:28:56;10.83;;;4.53;;
4806;SDS011;2417;52.482;13.432;2023-07-31T08:31:24;9.17;;;4.80;;
4806;SDS011;2417;52.482;13.432;2023-07-31T08:33:52;9.23;;;4.40;;
4806;SDS011;2417;52.482;13.432;2023-07-31T08:36:20;6.87;;;4.53;;
4806;SDS011;2417;52.482;13.432;2023-07-31T08:38:49;7.47;;;4.93;;
4806;SDS011;2417;52.482;13.432;2023-07-31T08:41:19;9.27;;;5.60;;
4806;SDS011;2417;52.482;13.432;2023-07-31T08:43:46;9.77;;;5.20;;
4806;SDS011;2417;52.482;13.432;2023-07-31T08:46:15;9.33;;;5.20;;
4806;SDS011;2417;52.482;13.432;2023-07-31T08:48:43;11.37;;;5.27;;
4806;SDS011;2417;52.482;13.432;2023-07-31T08:51:13;8.97;;;5.23;;
4806;SDS011;2417;52.482;13.432;2023-07-31T08:53:41;10.20;;;5.17;;
4806;SDS011;2417;52.482;13.432;2023-07-31T08:56:12;8.63;;;4.83;;
4806;SDS011;2417;52.482;13.432;2023-07-31T08:58:41;6.47;;;3.90;;
4806;SDS011;2417;52.482;13.432;2023-07-31T09:01:09;7.27;;;3.80;;
4806;SDS011;2417;52.482;13.432;2023-07-31T09:03:38;11.33;;;5.10;;
4806;SDS011;2417;52.482;13.432;2023-07-31T09:06:07;8.60;;;4.60;;
4806;SDS011;2417;52.482;13.432;2023-07-31T09:08:35;4.97;;;3.60;;
4806;SDS011;2417;52.482;13.432;2023-07-31T09:11:05;5.03;;;3.37;;
4806;SDS011;2417;52.482;13.432;2023-07-31T09:13:34;14.33;;;6.67;;
4806;SDS011;2417;52.482;13.432;2023-07-31T09:16:02;7.07;;;3.73;;
4806;SDS011;2417;52.482;13.432;2023-07-31T09:18:30;6.30;;;2.90;;
4806;SDS011;2417;52.482;13.432;2023-07-31T09:21:01;10.20;;;4.20;;
4806;SDS011;2417;52.482;13.432;2023-07-31T09:23:40;5.50;;;2.73;;
4806;SDS011;2417;52.482;13.432;2023-07-31T09:26:08;4.53;;;2.20;;
4806;SDS011;2417;52.482;13.432;2023-07-31T09:28:37;5.90;;;3.07;;
4806;SDS011;2417;52.482;13.432;2023-07-31T09:31:05;5.00;;;2.23;;
4806;SDS011;2417;52.482;13.432;2023-07-31T09:33:33;5.93;;;3.50;;
4806;SDS011;2417;52.482;13.432;2023-07-31T09:36:28;5.33;;;2.30;;
4806;SDS011;2417;52.482;13.432;2023-07-31T09:38:58;6.27;;;3.97;;
4806;SDS011;2417;52.482;13.432;2023-07-31T09:41:28;5.03;;;3.03;;
4806;SDS011;2417;52.482;13.432;2023-07-31T09:43:58;7.00;;;2.83;;
4806;SDS011;2417;52.482;13.432;2023-07-31T09:46:26;4.00;;;1.67;;
4806;SDS011;2417;52.482;13.432;2023-07-31T09:49:02;4.77;;;2.93;;
4806;SDS011;2417;52.482;13.432;2023-07-31T09:51:31;4.00;;;2.20;;
4806;SDS011;2417;52.482;13.432;2023-07-31T09:54:11;6.93;;;2.40;;
4806;SDS011;2417;52.482;13.432;2023-07-31T09:56:42;4.33;;;2.33;;
4806;SDS011;2417;52.482;13.432;2023-07-31T09:59:12;2.10;;;1.43;;
4806;SDS011;2417;52.482;13.432;2023-07-31T10:01:41;3.10;;;1.83;;
4806;SDS011;2417;52.482;13.432;2023-07-31T10:04:09;3.53;;;2.27;;
4806;SDS011;2417;52.482;13.432;2023-07-31T10:06:38;5.50;;;2.30;;
4806;SDS011;2417;52.482;13.432;2023-07-31T10:09:07;5.57;;;2.57;;
4806;SDS011;2417;52.482;13.432;2023-07-31T10:11:37;5.23;;;3.17;;
4806;SDS011;2417;52.482;13.432;2023-07-31T10:14:07;4.23;;;2.80;;
4806;SDS011;2417;52.482;13.432;2023-07-31T10:16:37;4.90;;;2.73;;
4806;SDS011;2417;52.482;13.432;2023-07-31T10:19:06;7.50;;;3.50;;
4806;SDS011;2417;52.482;13.432;2023-07-31T10:21:35;8.13;;;3.43;;
4806;SDS011;2417;52.482;13.432;2023-07-31T10:24:04;12.13;;;3.30;;
4806;SDS011;2417;52.482;13.432;2023-07-31T10:26:32;9.57;;;4.03;;
4806;SDS011;2417;52.482;13.432;2023-07-31T10:29:01;12.57;;;3.97;;
4806;SDS011;2417;52.482;13.432;2023-07-31T10:31:29;9.03;;;4.90;;
4806;SDS011;2417;52.482;13.432;2023-07-31T10:33:58;7.33;;;4.73;;
4806;SDS011;2417;52.482;13.432;2023-07-31T10:36:28;10.37;;;4.97;;
4806;SDS011;2417;52.482;13.432;2023-07-31T10:38:56;9.93;;;5.90;;
4806;SDS011;2417;52.482;13.432;2023-07-31T10:41:28;9.40;;;5.57;;
4806;SDS011;2417;52.482;13.432;2023-07-31T10:43:57;13.50;;;5.13;;
4806;SDS011;2417;52.482;13.432;2023-07-31T10:46:25;10.70;;;5.23;;
4806;SDS011;2417;52.482;13.432;2023-07-31T10:49:00;13.50;;;4.50;;
4806;SDS011;2417;52.482;13.432;2023-07-31T10:51:35;9.40;;;3.73;;
4806;SDS011;2417;52.482;13.432;2023-07-31T10:54:10;7.00;;;3.90;;
4806;SDS011;2417;52.482;13.432;2023-07-31T10:56:38;8.17;;;3.60;;
4806;SDS011;2417;52.482;13.432;2023-07-31T10:59:06;8.07;;;3.33;;
4806;SDS011;2417;52.482;13.432;2023-07-31T11:01:50;7.43;;;3.40;;
4806;SDS011;2417;52.482;13.432;2023-07-31T11:04:23;9.63;;;3.90;;
4806;SDS011;2417;52.482;13.432;2023-07-31T11:06:55;8.87;;;3.97;;
4806;SDS011;2417;52.482;13.432;2023-07-31T11:09:24;7.63;;;3.50;;
4806;SDS011;2417;52.482;13.432;2023-07-31T11:11:55;6.80;;;3.60;;
4806;SDS011;2417;52.482;13.432;2023-07-31T11:14:23;9.30;;;3.43;;
4806;SDS011;2417;52.482;13.432;2023-07-31T11:16:51;6.90;;;3.73;;
4806;SDS011;2417;52.482;13.432;2023-07-31T11:19:24;6.67;;;3.70;;
4806;SDS011;2417;52.482;13.432;2023-07-31T11:21:53;9.50;;;3.83;;
4806;SDS011;2417;52.482;13.432;2023-07-31T11:24:21;9.93;;;4.70;;
4806;SDS011;2417;52.482;13.432;2023-07-31T11:26:49;13.03;;;4.60;;
4806;SDS011;2417;52.482;13.432;2023-07-31T11:29:18;16.67;;;6.23;;
4806;SDS011;2417;52.482;13.432;2023-07-31T11:31:47;9.50;;;4.33;;
4806;SDS011;2417;52.482;13.432;2023-07-31T11:34:15;12.07;;;5.97;;
4806;SDS011;2417;52.482;13.432;2023-07-31T11:36:53;12.70;;;6.20;;
4806;SDS011;2417;52.482;13.432;2023-07-31T11:39:21;13.50;;;6.10;;
4806;SDS011;2417;52.482;13.432;2023-07-31T11:41:49;12.23;;;5.77;;
4806;SDS011;2417;52.482;13.432;2023-07-31T11:44:17;7.20;;;3.97;;
4806;SDS011;2417;52.482;13.432;2023-07-31T11:46:56;14.53;;;3.97;;
4806;SDS011;2417;52.482;13.432;2023-07-31T11:49:24;6.80;;;3.70;;
4806;SDS011;2417;52.482;13.432;2023-07-31T11:51:54;10.07;;;3.97;;
4806;SDS011;2417;52.482;13.432;2023-07-31T11:54:22;13.80;;;3.50;;
4806;SDS011;2417;52.482;13.432;2023-07-31T11:56:51;7.97;;;3.73;;
4806;SDS011;2417;52.482;13.432;2023-07-31T11:59:19;9.27;;;3.47;;
4806;SDS011;2417;52.482;13.432;2023-07-31T12:01:47;9.83;;;3.60;;
4806;SDS011;2417;52.482;13.432;2023-07-31T12:04:16;6.17;;;3.27;;
4806;SDS011;2417;52.482;13.432;2023-07-31T12:06:46;10.97;;;3.50;;
4806;SDS011;2417;52.482;13.432;2023-07-31T12:09:17;7.83;;;4.00;;
4806;SDS011;2417;52.482;13.432;2023-07-31T12:11:45;8.17;;;3.73;;
4806;SDS011;2417;52.482;13.432;2023-07-31T12:14:20;12.50;;;3.80;;
4806;SDS011;2417;52.482;13.432;2023-07-31T12:16:52;9.00;;;3.90;;
4806;SDS011;2417;52.482;13.432;2023-07-31T12:19:21;7.50;;;3.60;;
4806;SDS011;2417;52.482;13.432;2023-07-31T12:21:49;9.20;;;3.90;;
4806;SDS011;2417;52.482;13.432;2023-07-31T12:24:20;11.63;;;3.10;;
4806;SDS011;2417;52.482;13.432;2023-07-31T12:26:48;9.20;;;4.60;;
4806;SDS011;2417;52.482;13.432;2023-07-31T12:29:16;7.23;;;3.67;;
4806;SDS011;2417;52.482;13.432;2023-07-31T12:31:44;7.30;;;2.90;;
4806;SDS011;2417;52.482;13.432;2023-07-31T12:34:15;9.53;;;3.33;;
4806;SDS011;2417;52.482;13.432;2023-07-31T12:36:45;6.70;;;3.50;;
4806;SDS011;2417;52.482;13.432;2023-07-31T12:39:14;7.10;;;3.70;;
4806;SDS011;2417;52.482;13.432;2023-07-31T12:41:44;9.07;;;3.40;;
4806;SDS011;2417;52.482;13.432;2023-07-31T12:44:12;8.53;;;3.80;;
4806;SDS011;2417;52.482;13.432;2023-07-31T12:46:40;8.67;;;3.63;;
4806;SDS011;2417;52.482;13.432;2023-07-31T12:49:08;6.67;;;3.03;;
4806;SDS011;2417;52.482;13.432;2023-07-31T12:51:36;5.87;;;2.70;;
4806;SDS011;2417;52.482;13.432;2023-07-31T12:54:04;15.37;;;3.20;;
4806;SDS011;2417;52.482;13.432;2023-07-31T12:56:32;7.13;;;2.37;;
4806;SDS011;2417;52.482;13.432;2023-07-31T12:59:02;5.57;;;2.53;;
4806;SDS011;2417;52.482;13.432;2023-07-31T13:01:30;4.00;;;2.10;;
4806;SDS011;2417;52.482;13.432;2023-07-31T13:03:58;4.73;;;2.30;;
4806;SDS011;2417;52.482;13.432;2023-07-31T13:06:27;5.07;;;2.77;;
4806;SDS011;2417;52.482;13.432;2023-07-31T13:08:55;6.37;;;2.50;;
4806;SDS011;2417;52.482;13.432;2023-07-31T13:11:23;4.63;;;2.27;;
4806;SDS011;2417;52.482;13.432;2023-07-31T13:13:51;5.60;;;2.50;;
4806;SDS011;2417;52.482;13.432;2023-07-31T13:16:20;7.87;;;2.40;;
4806;SDS011;2417;52.482;13.432;2023-07-31T13:18:48;4.20;;;2.40;;
4806;SDS011;2417;52.482;13.432;2023-07-31T13:21:18;9.77;;;3.03;;
4806;SDS011;2417;52.482;13.432;2023-07-31T13:23:48;6.50;;;2.53;;
4806;SDS011;2417;52.482;13.432;2023-07-31T13:26:16;7.20;;;3.00;;
4806;SDS011;2417;52.482;13.432;2023-07-31T13:28:43;8.97;;;3.80;;
4806;SDS011;2417;52.482;13.432;2023-07-31T13:31:12;6.40;;;2.80;;
4806;SDS011;2417;52.482;13.432;2023-07-31T13:33:41;6.17;;;3.10;;
4806;SDS011;2417;52.482;13.432;2023-07-31T13:36:10;7.67;;;3.63;;
4806;SDS011;2417;52.482;13.432;2023-07-31T13:38:40;10.50;;;3.57;;
4806;SDS011;2417;52.482;13.432;2023-07-31T13:41:08;7.80;;;2.80;;
4806;SDS011;2417;52.482;13.432;2023-07-31T13:43:36;5.97;;;2.80;;
4806;SDS011;2417;52.482;13.432;2023-07-31T13:46:04;7.73;;;3.30;;
4806;SDS011;2417;52.482;13.432;2023-07-31T13:48:34;7.33;;;3.80;;
4806;SDS011;2417;52.482;13.432;2023-07-31T13:51:03;10.93;;;3.90;;
4806;SDS011;2417;52.482;13.432;2023-07-31T13:53:31;10.33;;;4.00;;
4806;SDS011;2417;52.482;13.432;2023-07-31T13:55:59;6.03;;;2.83;;
4806;SDS011;2417;52.482;13.432;2023-07-31T13:58:27;10.87;;;3.30;;
4806;SDS011;2417;52.482;13.432;2023-07-31T14:00:55;7.73;;;3.30;;
4806;SDS011;2417;52.482;13.432;2023-07-31T14:03:23;7.40;;;3.50;;
4806;SDS011;2417;52.482;13.432;2023-07-31T14:05:51;7.37;;;3.33;;
4806;SDS011;2417;52.482;13.432;2023-07-31T14:08:21;10.00;;;3.10;;
4806;SDS011;2417;52.482;13.432;2023-07-31T14:10:49;6.77;;;3.60;;
4806;SDS011;2417;52.482;13.432;2023-07-31T14:13:17;6.80;;;3.43;;
4806;SDS011;2417;52.482;13.432;2023-07-31T14:15:45;8.70;;;3.90;;
4806;SDS011;2417;52.482;13.432;2023-07-31T14:18:13;6.90;;;3.67;;
4806;SDS011;2417;52.482;13.432;2023-07-31T14:20:41;8.83;;;4.07;;
4806;SDS011;2417;52.482;13.432;2023-07-31T14:23:09;7.17;;;3.70;;
4806;SDS011;2417;52.482;13.432;2023-07-31T14:25:38;8.80;;;3.80;;
4806;SDS011;2417;52.482;13.432;2023-07-31T14:28:06;8.40;;;3.27;;
4806;SDS011;2417;52.482;13.432;2023-07-31T14:30:34;7.53;;;3.50;;
4806;SDS011;2417;52.482;13.432;2023-07-31T14:33:02;7.50;;;3.40;;
4806;SDS011;2417;52.482;13.432;2023-07-31T14:35:30;8.47;;;3.10;;
4806;SDS011;2417;52.482;13.432;2023-07-31T14:37:58;6.20;;;3.33;;
4806;SDS011;2417;52.482;13.432;2023-07-31T14:40:27;7.70;;;3.07;;
4806;SDS011;2417;52.482;13.432;2023-07-31T14:42:56;11.30;;;3.40;;
4806;SDS011;2417;52.482;13.432;2023-07-31T14:45:24;7.83;;;4.03;;
4806;SDS011;2417;52.482;13.432;2023-07-31T14:47:52;8.87;;;3.40;;
4806;SDS011;2417;52.482;13.432;2023-07-31T14:50:20;7.30;;;3.80;;
4806;SDS011;2417;52.482;13.432;2023-07-31T14:52:48;6.53;;;3.60;;
4806;SDS011;2417;52.482;13.432;2023-07-31T14:55:16;7.67;;;3.67;;
4806;SDS011;2417;52.482;13.432;2023-07-31T14:57:43;10.40;;;5.20;;
4806;SDS011;2417;52.482;13.432;2023-07-31T15:00:13;12.17;;;3.90;;
4806;SDS011;2417;52.482;13.432;2023-07-31T15:02:41;7.10;;;3.50;;